Maxwell AFB, Alabama
Current Conditions -  °F | °C
As of 2:58 AM on Friday 19 Dec 2014 (Local Time) from KMXF Reporting Station
Clear Clear  
Wind Chill: 40°   Ceiling: Unl
Heat Index: 40°   Visibility: 10mi
Dew Point: 36°   Wind: 1mph
Humidity: 86%   Direction: 360°N
Pressure: 30.16"   Gusts: NA
Location:  32.3797°N, 86.3233°W
Report Text: KMXF 190858Z AUTO 36001KT 10SM CLR 04/02 A3016 RMK AO2 SLP216 T00430021 55002
Loading
Personal Weather Stations






























Interactive Weather Map New forecast layout! Learn more

10-Day Weather Forecast

Advertisements
Track Severe Weather on mobile